Time;durP1;ratioP1;P1;durP2;ratioP2;P2;SDS_P1;SDS_P2;PMS_P1;PMS_P2;Temp;Humidity;BMP_temperature;BMP_pressure;BME280_temperature;BME280_humidity;BME280_pressure;Samples;Min_cycle;Max_cycle;Signal;HPM_P1;HPM_P2
2020/12/21 00:07:00;;;;;;;104.03;37.17;;;;;;;2.39;100.00;101419.56;10368872;84;21064;-83
2020/12/21 00:22:05;;;;;;;94.97;32.53;;;;;;;2.12;100.00;101391.59;10494631;83;21069;-83
2020/12/21 00:37:10;;;;;;;116.00;40.28;;;;;;;2.12;100.00;101391.59;10456857;84;21074;-82
2020/12/21 00:52:14;;;;;;;102.15;33.85;;;;;;;2.07;100.00;101416.80;10512772;83;21044;-82
2020/12/21 01:07:19;;;;;;;80.12;31.40;;;;;;;2.12;100.00;101384.66;10657511;82;21033;-87
2020/12/21 01:22:24;;;;;;;91.72;32.48;;;;;;;2.10;100.00;101430.92;10664592;82;21144;-90
2020/12/21 01:37:29;;;;;;;79.22;29.42;;;;;;;1.87;100.00;101393.73;10421939;85;21143;-83
2020/12/21 01:52:33;;;;;;;89.20;33.05;;;;;;;1.57;100.00;101369.30;10280628;85;21182;-83
2020/12/21 02:07:38;;;;;;;83.40;31.52;;;;;;;1.57;100.00;101369.30;10370286;85;21060;-83
2020/12/21 02:22:43;;;;;;;94.22;32.23;;;;;;;1.63;100.00;101387.64;10349674;85;21183;-86
2020/12/21 02:37:47;;;;;;;76.65;28.55;;;;;;;1.61;100.00;101362.27;10451792;84;21056;-87
2020/12/21 02:52:52;;;;;;;76.10;25.80;;;;;;;1.67;100.00;101347.84;10667396;82;21179;-88
2020/12/21 03:07:56;;;;;;;80.53;29.52;;;;;;;1.58;100.00;101331.34;10645929;82;21044;-87
2020/12/21 03:23:00;;;;;;;130.93;42.25;;;;;;;1.58;100.00;101331.34;10645937;82;21022;-88
2020/12/21 03:38:06;;;;;;;90.25;31.57;;;;;;;1.59;100.00;101332.57;10646379;82;21060;-88
2020/12/21 03:53:10;;;;;;;90.83;34.15;;;;;;;1.59;100.00;101332.57;10645870;82;21474;-88
2020/12/21 04:08:15;;;;;;;85.50;29.30;;;;;;;1.69;100.00;101326.66;10695245;82;21054;-88
2020/12/21 04:23:19;;;;;;;98.30;38.40;;;;;;;1.85;100.00;101326.97;10830991;81;21009;-89
2020/12/21 04:38:24;;;;;;;86.25;31.87;;;;;;;1.76;100.00;101300.95;10787637;81;21052;-86
2020/12/21 04:53:28;;;;;;;75.35;26.80;;;;;;;1.92;100.00;101268.90;10703548;82;21044;-91
2020/12/21 05:08:33;;;;;;;70.72;26.80;;;;;;;1.93;100.00;101284.83;10718216;82;21013;-90
2020/12/21 05:23:38;;;;;;;73.83;27.20;;;;;;;1.93;100.00;101284.83;10723919;81;21053;-87
2020/12/21 05:38:44;;;;;;;79.37;30.60;;;;;;;1.92;100.00;101267.61;10736708;81;21065;-87
2020/12/21 05:53:54;;;;;;;79.32;28.60;;;;;;;2.00;100.00;101273.80;10353988;84;21015;-86
2020/12/21 06:09:01;;;;;;;93.58;38.15;;;;;;;2.00;100.00;101245.33;10765630;81;21049;-85
2020/12/21 06:24:16;;;;;;;108.37;44.35;;;;;;;2.12;100.00;101255.22;10743870;81;21093;-85
2020/12/21 06:39:25;;;;;;;89.28;35.43;;;;;;;2.26;100.00;101278.02;10683538;82;21013;-85
2020/12/21 06:54:33;;;;;;;151.63;57.45;;;;;;;2.37;100.00;101284.09;10652918;82;21009;-83
2020/12/21 07:09:39;;;;;;;195.75;100.95;;;;;;;2.42;100.00;101296.88;10700162;81;21080;-83
2020/12/21 07:24:43;;;;;;;123.82;48.73;;;;;;;2.59;100.00;101304.02;10788053;82;21147;-84
2020/12/21 07:39:50;;;;;;;110.52;44.65;;;;;;;2.61;100.00;101294.41;10775247;82;21036;-87
2020/12/21 07:54:57;;;;;;;86.17;38.23;;;;;;;2.73;100.00;101302.16;10774432;82;21028;-86
2020/12/21 08:10:01;;;;;;;84.67;39.92;;;;;;;2.74;100.00;101310.34;10774635;82;21158;-85
2020/12/21 08:25:09;;;;;;;85.05;35.48;;;;;;;2.89;100.00;101315.36;10762209;81;21116;-84
2020/12/21 08:40:15;;;;;;;97.75;39.35;;;;;;;2.86;100.00;101315.49;10745420;82;21104;-86
2020/12/21 08:55:20;;;;;;;97.47;38.13;;;;;;;2.97;100.00;101301.20;10733883;82;21032;-89
2020/12/21 09:10:24;;;;;;;72.58;33.58;;;;;;;3.05;100.00;101298.30;10766766;82;21013;-86
2020/12/21 09:25:29;;;;;;;90.32;35.58;;;;;;;3.22;100.00;101287.25;10773008;81;21225;-85
2020/12/21 09:40:36;;;;;;;83.80;35.80;;;;;;;3.30;100.00;101289.06;10756859;82;21064;-84
2020/12/21 09:55:40;;;;;;;99.13;40.90;;;;;;;3.36;100.00;101280.17;10378599;85;21530;-84
2020/12/21 10:10:49;;;;;;;67.50;30.68;;;;;;;3.30;100.00;101285.64;10634444;81;21077;-84
2020/12/21 10:25:56;;;;;;;69.95;32.63;;;;;;;3.23;100.00;101259.09;10760264;81;21064;-84
2020/12/21 10:41:02;;;;;;;84.52;37.65;;;;;;;3.19;100.00;101257.53;10762406;81;21025;-82
2020/12/21 10:56:13;;;;;;;78.55;35.08;;;;;;;3.19;100.00;101238.55;10753007;81;21064;-82
2020/12/21 11:11:39;;;;;;;80.00;37.30;;;;;;;3.22;100.00;101234.09;10763898;81;21047;-82
2020/12/21 11:26:45;;;;;;;69.50;31.07;;;;;;;3.26;100.00;101233.05;10248570;85;21111;-83
2020/12/21 11:41:51;;;;;;;75.67;35.50;;;;;;;3.35;100.00;101230.50;10265421;85;21119;-80
2020/12/21 11:56:57;;;;;;;66.23;28.57;;;;;;;3.29;100.00;101234.67;10246131;85;21465;-83
2020/12/21 12:12:01;;;;;;;79.40;36.98;;;;;;;3.39;100.00;101224.73;10248404;85;21163;-83
2020/12/21 12:27:06;;;;;;;81.67;35.60;;;;;;;3.36;100.00;101224.88;10259990;85;21100;-83
2020/12/21 12:42:13;;;;;;;86.47;36.75;;;;;;;3.37;100.00;101225.27;10261832;84;21155;-85
2020/12/21 12:57:17;;;;;;;111.40;48.35;;;;;;;3.36;100.00;101229.59;10255202;84;21107;-84
2020/12/21 13:12:21;;;;;;;84.52;38.85;;;;;;;3.42;100.00;101222.86;10266963;84;21097;-84
2020/12/21 13:27:25;;;;;;;73.37;33.88;;;;;;;3.19;100.00;101220.40;10320376;84;21251;-85
2020/12/21 13:42:30;;;;;;;78.90;32.35;;;;;;;2.51;100.00;101209.75;10328404;84;21114;-85
2020/12/21 13:57:35;;;;;;;83.60;33.88;;;;;;;3.28;100.00;101223.44;10326155;84;21223;-86
2020/12/21 14:12:43;;;;;;;92.47;44.60;;;;;;;3.41;100.00;101204.30;10325663;83;21557;-86
2020/12/21 14:27:47;;;;;;;69.25;33.65;;;;;;;3.55;100.00;101223.61;10244598;84;21203;-86
2020/12/21 14:42:52;;;;;;;65.40;30.80;;;;;;;3.58;100.00;101212.65;10232510;84;21112;-85
2020/12/21 14:57:57;;;;;;;75.32;31.50;;;;;;;3.53;100.00;101199.03;10255351;84;21195;-85
2020/12/21 15:13:02;;;;;;;75.47;33.38;;;;;;;3.46;100.00;101216.63;10242344;84;21104;-87
2020/12/21 15:28:07;;;;;;;124.02;49.75;;;;;;;3.58;100.00;101223.03;10327346;84;21641;-86
2020/12/21 15:43:15;;;;;;;101.60;46.33;;;;;;;3.61;100.00;101222.05;10342463;84;21054;-86
2020/12/21 15:58:21;;;;;;;100.25;41.80;;;;;;;3.60;100.00;101204.79;10361342;84;21265;-86
2020/12/21 16:13:26;;;;;;;89.85;36.45;;;;;;;3.80;100.00;101207.35;10341620;83;21098;-86
2020/12/21 16:28:41;;;;;;;84.45;34.55;;;;;;;2.47;100.00;101204.30;10249721;84;21105;-86
2020/12/21 16:44:08;;;;;;;140.92;59.90;;;;;;;2.52;100.00;101206.26;10263029;84;21135;-86
2020/12/21 16:59:17;;;;;;;102.95;42.65;;;;;;;2.37;100.00;101195.20;10228941;84;22076;-85
2020/12/21 17:14:31;;;;;;;95.65;39.33;;;;;;;2.36;100.00;101203.40;10239519;84;21102;-84
2020/12/21 17:29:37;;;;;;;109.05;41.98;;;;;;;2.36;100.00;101194.80;9867098;86;21872;-85
2020/12/21 17:44:42;;;;;;;160.22;48.75;;;;;;;2.41;100.00;101188.99;10039365;85;21466;-86
2020/12/21 17:59:47;;;;;;;97.15;35.38;;;;;;;2.51;100.00;101190.31;10244952;85;21036;-87
2020/12/21 18:14:54;;;;;;;93.07;36.77;;;;;;;2.56;100.00;101184.94;10263789;85;21135;-84
2020/12/21 18:30:06;;;;;;;155.20;63.17;;;;;;;2.58;100.00;101186.56;10263767;85;21533;-83
2020/12/21 18:45:15;;;;;;;111.90;41.90;;;;;;;2.67;100.00;101185.36;10273120;85;21069;-82
2020/12/21 19:00:25;;;;;;;165.18;59.80;;;;;;;2.68;100.00;101182.30;10261387;85;21214;-83
2020/12/21 19:15:30;;;;;;;108.75;40.38;;;;;;;2.90;100.00;101186.16;10300272;84;21095;-83
2020/12/21 19:30:42;;;;;;;110.92;43.58;;;;;;;2.91;100.00;101165.36;10292937;84;21077;-81
2020/12/21 19:45:49;;;;;;;109.90;39.50;;;;;;;2.92;100.00;101161.86;10308837;84;21218;-82
2020/12/21 20:00:54;;;;;;;108.42;39.55;;;;;;;3.02;100.00;101172.67;10266282;85;21590;-80
2020/12/21 20:16:01;;;;;;;97.40;39.42;;;;;;;3.03;100.00;101164.46;10286394;85;21036;-84
2020/12/21 20:31:08;;;;;;;96.00;35.43;;;;;;;3.08;100.00;101164.64;10297416;85;21534;-80
2020/12/21 20:46:17;;;;;;;67.50;28.05;;;;;;;3.12;100.00;101158.42;10281738;84;21126;-82
2020/12/21 21:01:22;;;;;;;56.73;22.73;;;;;;;3.18;100.00;101135.73;10274642;85;21485;-84
2020/12/21 21:16:27;;;;;;;61.85;22.90;;;;;;;3.23;100.00;101132.48;10260923;84;21216;-85
2020/12/21 21:31:32;;;;;;;41.48;17.70;;;;;;;3.24;100.00;101123.80;10199113;85;21209;-83
2020/12/21 21:46:39;;;;;;;43.15;17.77;;;;;;;3.34;100.00;101127.67;10192101;84;21505;-88
2020/12/21 22:01:46;;;;;;;38.80;16.40;;;;;;;3.36;100.00;101112.87;10178043;86;21075;-88
2020/12/21 22:16:54;;;;;;;41.30;16.70;;;;;;;3.42;100.00;101102.23;10182227;85;21060;-88
2020/12/21 22:31:59;;;;;;;44.90;18.42;;;;;;;3.33;100.00;101096.16;10132370;86;21071;-81
2020/12/21 22:47:05;;;;;;;41.10;17.85;;;;;;;3.28;100.00;101079.95;10146979;86;21051;-81
2020/12/21 23:02:14;;;;;;;54.67;21.45;;;;;;;3.29;100.00;101060.90;10129648;86;21551;-82
2020/12/21 23:17:20;;;;;;;72.10;26.82;;;;;;;3.32;100.00;101046.48;10157886;85;21071;-83
2020/12/21 23:32:28;;;;;;;75.87;28.98;;;;;;;3.33;100.00;101041.22;10254872;85;21079;-81
2020/12/21 23:47:32;;;;;;;82.25;30.05;;;;;;;3.19;100.00;101029.80;10243786;84;21575;-81
